createdAt,value
2023-04-20T00:01:18.494Z,59.71
2023-04-20T00:03:45.356Z,60.35
2023-04-20T00:06:12.287Z,60.27
2023-04-20T00:08:38.859Z,59.95
2023-04-20T00:11:11.618Z,59.73
2023-04-20T00:13:38.209Z,59.69
2023-04-20T00:16:07.965Z,59.90
2023-04-20T00:18:34.523Z,60.57
2023-04-20T00:21:16.875Z,61.09
2023-04-20T00:23:58.543Z,61.37
2023-04-20T00:26:25.523Z,60.89
2023-04-20T00:28:52.643Z,60.69
2023-04-20T00:31:20.021Z,60.60
2023-04-20T00:36:21.989Z,60.67
2023-04-20T00:38:56.980Z,60.77
2023-04-20T00:41:23.611Z,60.62
2023-04-20T00:43:53.840Z,60.71
2023-04-20T00:46:21.552Z,60.58
2023-04-20T00:51:38.740Z,60.66
2023-04-20T00:54:18.759Z,61.16
2023-04-20T00:56:45.595Z,61.53
2023-04-20T00:59:12.528Z,61.25
2023-04-20T01:01:39.344Z,61.57
2023-04-20T01:04:07.914Z,61.21
2023-04-20T01:06:34.590Z,61.75
2023-04-20T01:11:36.659Z,61.82
2023-04-20T01:14:03.220Z,61.98
2023-04-20T01:16:30.753Z,62.89
2023-04-20T01:18:57.569Z,62.47
2023-04-20T01:21:24.182Z,62.67
2023-04-20T01:28:15.675Z,62.46
2023-04-20T01:30:42.352Z,63.03
2023-04-20T01:33:09.014Z,62.61
2023-04-20T01:35:36.364Z,62.61
2023-04-20T01:38:03.102Z,62.93
2023-04-20T01:40:35.217Z,63.06
2023-04-20T01:43:01.772Z,62.82
2023-04-20T01:45:28.351Z,62.28
2023-04-20T01:47:55.017Z,62.16
2023-04-20T01:50:21.596Z,62.36
2023-04-20T01:52:48.134Z,62.24
2023-04-20T01:55:20.293Z,62.06
2023-04-20T01:57:46.927Z,61.63
2023-04-20T02:00:13.873Z,61.47
2023-04-20T02:02:40.615Z,61.55
2023-04-20T02:05:32.057Z,62.11
2023-04-20T02:08:11.364Z,63.05
2023-04-20T02:10:37.975Z,63.71
2023-04-20T02:13:04.538Z,64.16
2023-04-20T02:15:31.121Z,64.76
2023-04-20T02:17:58.109Z,64.61
2023-04-20T02:20:25.000Z,63.42
2023-04-20T02:22:51.599Z,63.93
2023-04-20T02:25:30.115Z,63.22
2023-04-20T02:27:57.049Z,62.84
2023-04-20T02:30:23.656Z,62.25
2023-04-20T02:32:50.245Z,62.02
2023-04-20T02:35:32.446Z,61.82
2023-04-20T02:38:11.116Z,61.91
2023-04-20T02:40:37.814Z,62.02
2023-04-20T02:43:04.478Z,61.95
2023-04-20T02:45:32.447Z,61.99
2023-04-20T02:47:59.053Z,61.99
2023-04-20T02:50:26.558Z,62.19
2023-04-20T02:53:08.509Z,62.74
2023-04-20T02:55:35.191Z,62.94
2023-04-20T02:58:01.796Z,62.61
2023-04-20T03:00:28.391Z,62.49
2023-04-20T03:03:07.343Z,62.48
2023-04-20T03:06:05.188Z,63.00
2023-04-20T03:08:37.618Z,63.64
2023-04-20T03:11:04.153Z,63.80
2023-04-20T03:13:30.934Z,64.38
2023-04-20T03:15:57.776Z,64.45
2023-04-20T03:18:24.408Z,64.39
2023-04-20T03:20:51.078Z,64.97
2023-04-20T03:23:17.624Z,64.59
2023-04-20T03:25:44.764Z,64.78
2023-04-20T03:28:11.304Z,64.02
2023-04-20T03:30:37.880Z,63.73
2023-04-20T03:33:04.564Z,63.76
2023-04-20T03:35:31.575Z,63.65
2023-04-20T03:37:58.169Z,63.53
2023-04-20T03:40:24.947Z,63.38
2023-04-20T03:42:51.555Z,63.36
2023-04-20T03:45:18.089Z,63.85
2023-04-20T03:47:44.880Z,64.61
2023-04-20T03:50:11.521Z,64.17
2023-04-20T03:52:43.329Z,64.00
2023-04-20T03:55:10.023Z,63.88
2023-04-20T03:57:37.507Z,63.69
2023-04-20T04:00:04.814Z,63.49
2023-04-20T04:02:52.780Z,63.27
2023-04-20T04:05:38.379Z,63.22
2023-04-20T04:08:20.237Z,62.94
2023-04-20T04:25:10.461Z,62.25
2023-04-20T04:27:37.669Z,62.14
2023-04-20T04:30:05.281Z,61.95
2023-04-20T04:32:34.594Z,62.24
2023-04-20T04:35:01.439Z,61.75
2023-04-20T04:37:36.784Z,61.60
2023-04-20T04:40:16.261Z,61.37
2023-04-20T04:42:55.701Z,61.54
2023-04-20T04:45:25.318Z,61.31
2023-04-20T04:47:54.037Z,61.23
2023-04-20T04:50:33.480Z,61.76
2023-04-20T04:53:00.047Z,61.62
2023-04-20T04:55:26.662Z,61.27
2023-04-20T04:57:53.239Z,60.98
2023-04-20T05:00:20.230Z,60.99
2023-04-20T05:02:46.923Z,60.80
2023-04-20T05:05:13.753Z,60.63
2023-04-20T05:07:40.458Z,60.33
2023-04-20T05:10:08.134Z,60.02
2023-04-20T05:12:34.765Z,59.69
2023-04-20T05:15:01.440Z,59.45
2023-04-20T05:17:28.146Z,59.12
2023-04-20T05:19:54.818Z,58.85
2023-04-20T05:22:21.403Z,58.51
2023-04-20T05:24:47.981Z,58.13
2023-04-20T05:27:14.671Z,58.25
2023-04-20T05:29:41.225Z,57.60
2023-04-20T05:32:08.285Z,57.63
2023-04-20T05:34:35.046Z,57.44
2023-04-20T05:37:04.647Z,56.81
2023-04-20T05:39:34.697Z,56.39
2023-04-20T05:42:01.770Z,55.96
2023-04-20T05:44:28.328Z,55.56
2023-04-20T05:46:54.917Z,55.98
2023-04-20T05:49:21.704Z,55.43
2023-04-20T05:51:48.303Z,56.37
2023-04-20T05:54:14.878Z,55.37
2023-04-20T05:56:41.493Z,55.90
2023-04-20T05:59:08.832Z,56.70
2023-04-20T06:01:35.584Z,57.14
2023-04-20T06:04:17.580Z,57.14
2023-04-20T06:06:44.549Z,56.77
2023-04-20T06:09:11.381Z,57.83
2023-04-20T06:11:37.965Z,56.27
2023-04-20T06:14:04.519Z,56.16
2023-04-20T06:16:31.205Z,55.35
2023-04-20T06:18:57.891Z,54.39
2023-04-20T06:21:24.675Z,53.34
2023-04-20T06:23:51.273Z,53.11
2023-04-20T06:26:17.845Z,53.03
2023-04-20T06:31:20.532Z,51.92
2023-04-20T06:33:47.349Z,51.72
2023-04-20T06:36:14.440Z,51.03
2023-04-20T06:38:41.153Z,49.45
2023-04-20T06:41:07.744Z,47.19
2023-04-20T06:47:01.116Z,44.09
2023-04-20T06:49:27.772Z,45.32
2023-04-20T06:51:54.511Z,45.07
2023-04-20T06:54:21.137Z,44.39
2023-04-20T06:56:48.429Z,46.10
2023-04-20T06:59:18.229Z,45.18
2023-04-20T07:01:45.157Z,44.57
2023-04-20T07:04:12.163Z,44.47
2023-04-20T07:06:39.171Z,45.13
2023-04-20T07:09:06.052Z,43.87
2023-04-20T07:11:32.635Z,43.93
2023-04-20T07:13:59.239Z,43.98
2023-04-20T07:16:25.979Z,42.64
2023-04-20T07:18:52.574Z,42.73
2023-04-20T07:21:19.132Z,42.80
2023-04-20T07:23:45.755Z,44.69
2023-04-20T07:26:12.394Z,42.38
2023-04-20T07:28:38.956Z,43.16
2023-04-20T07:31:05.995Z,42.74
2023-04-20T07:33:40.012Z,41.92
2023-04-20T07:36:07.118Z,41.43
2023-04-20T07:38:33.672Z,40.90
2023-04-20T07:41:00.402Z,40.45
2023-04-20T07:43:52.142Z,40.34
2023-04-20T07:46:37.346Z,39.29
2023-04-20T07:49:04.236Z,40.94
2023-04-20T07:51:32.376Z,39.04
2023-04-20T07:53:58.943Z,38.64
2023-04-20T07:56:26.081Z,38.84
2023-04-20T07:58:52.666Z,39.10
2023-04-20T08:01:23.721Z,40.60
2023-04-20T08:03:50.545Z,39.83
2023-04-20T08:06:17.658Z,40.22
2023-04-20T08:08:44.284Z,39.60
2023-04-20T08:11:12.574Z,39.01
2023-04-20T08:13:40.091Z,39.80
2023-04-20T08:18:55.205Z,39.32
2023-04-20T08:21:25.460Z,39.43
2023-04-20T08:23:52.764Z,38.28
2023-04-20T08:26:19.331Z,37.83
2023-04-20T08:28:45.876Z,37.41
2023-04-20T08:31:55.781Z,36.65
2023-04-20T08:35:09.495Z,36.78
2023-04-20T08:37:48.237Z,36.87
2023-04-20T08:40:17.120Z,36.98
2023-04-20T08:42:43.714Z,36.89
2023-04-20T08:45:10.405Z,37.07
2023-04-20T08:47:37.247Z,37.42
2023-04-20T08:50:04.537Z,37.24
2023-04-20T08:52:32.628Z,37.12
2023-04-20T08:54:59.205Z,37.17
2023-04-20T08:57:26.306Z,36.56
2023-04-20T08:59:53.366Z,36.66
2023-04-20T09:02:20.156Z,35.91
2023-04-20T09:04:49.321Z,35.19
2023-04-20T09:07:21.056Z,32.71
2023-04-20T09:09:57.995Z,33.67
2023-04-20T09:12:25.090Z,30.15
2023-04-20T09:14:52.453Z,31.20
2023-04-20T09:17:32.094Z,31.98
2023-04-20T09:19:58.647Z,32.21
2023-04-20T09:22:38.531Z,32.92
2023-04-20T09:25:17.771Z,33.11
2023-04-20T09:27:55.916Z,34.57
2023-04-20T09:30:22.827Z,34.16
2023-04-20T09:32:49.581Z,36.74
2023-04-20T09:35:23.961Z,33.43
2023-04-20T09:38:18.113Z,37.17
2023-04-20T09:41:12.555Z,33.09
2023-04-20T09:43:40.815Z,33.78
2023-04-20T09:46:07.901Z,33.27
2023-04-20T09:48:35.595Z,33.30
2023-04-20T09:51:03.201Z,33.58
2023-04-20T09:53:30.841Z,34.24
2023-04-20T09:56:17.561Z,32.85
2023-04-20T09:58:46.676Z,33.33
2023-04-20T10:01:13.769Z,34.78
2023-04-20T10:03:44.182Z,34.49
2023-04-20T10:06:25.321Z,34.58
2023-04-20T10:08:53.157Z,33.64
2023-04-20T10:13:55.913Z,33.66
2023-04-20T10:16:23.171Z,34.39
2023-04-20T10:19:01.899Z,33.30
2023-04-20T10:21:30.028Z,33.80
2023-04-20T10:23:58.916Z,34.47
2023-04-20T10:26:45.494Z,34.96
2023-04-20T10:29:36.989Z,34.92
2023-04-20T10:32:08.586Z,34.52
2023-04-20T10:34:36.868Z,35.06
2023-04-20T10:37:11.121Z,33.65
2023-04-20T10:39:45.124Z,33.41
2023-04-20T10:42:11.874Z,34.02
2023-04-20T10:44:52.024Z,34.25
2023-04-20T10:47:27.818Z,32.56
2023-04-20T10:49:54.416Z,32.42
2023-04-20T10:52:37.911Z,32.50
2023-04-20T10:55:06.958Z,33.18
2023-04-20T10:57:33.949Z,32.23
2023-04-20T11:00:00.591Z,31.57
2023-04-20T11:02:28.305Z,31.45
2023-04-20T11:05:00.911Z,32.06
2023-04-20T11:07:27.662Z,32.23
2023-04-20T11:09:58.000Z,32.40
2023-04-20T11:12:24.614Z,32.54
2023-04-20T11:14:53.485Z,32.78
2023-04-20T11:17:20.740Z,32.97
2023-04-20T11:19:47.427Z,32.13
2023-04-20T11:22:23.415Z,33.05
2023-04-20T11:24:50.325Z,32.07
2023-04-20T11:27:23.843Z,31.95
2023-04-20T11:30:05.454Z,32.13
2023-04-20T11:32:38.377Z,31.35
2023-04-20T11:35:09.272Z,31.64
2023-04-20T11:37:57.623Z,32.25
2023-04-20T11:40:24.614Z,31.48
2023-04-20T11:42:52.316Z,32.74
2023-04-20T11:45:18.900Z,31.57
2023-04-20T11:47:47.347Z,30.78
2023-04-20T11:50:14.425Z,30.25
2023-04-20T11:52:40.985Z,31.51
2023-04-20T11:55:08.000Z,30.43
2023-04-20T11:57:34.791Z,31.95
2023-04-20T12:00:01.429Z,31.31
2023-04-20T12:02:28.200Z,31.85
2023-04-20T12:04:55.012Z,31.73
2023-04-20T12:07:22.406Z,29.97
2023-04-20T12:09:49.466Z,30.08
2023-04-20T12:12:16.019Z,29.89
2023-04-20T12:14:42.558Z,28.73
2023-04-20T12:17:09.351Z,28.50
2023-04-20T12:19:35.902Z,27.84
2023-04-20T12:22:02.706Z,29.40
2023-04-20T12:24:29.635Z,29.04
2023-04-20T12:26:58.201Z,30.63
2023-04-20T12:29:24.910Z,29.97
2023-04-20T12:31:51.575Z,29.87
2023-04-20T12:34:18.629Z,32.85
2023-04-20T12:36:45.541Z,30.66
2023-04-20T12:39:12.135Z,28.54
2023-04-20T12:41:38.674Z,29.79
2023-04-20T12:44:07.610Z,29.23
2023-04-20T12:46:35.380Z,28.92
2023-04-20T12:49:02.192Z,27.88
2023-04-20T12:51:28.784Z,27.41
2023-04-20T12:53:55.497Z,26.65
2023-04-20T12:56:22.087Z,29.01
2023-04-20T12:58:49.060Z,28.66
2023-04-20T13:01:17.327Z,29.66
2023-04-20T13:03:46.314Z,28.78
2023-04-20T13:06:14.422Z,28.50
2023-04-20T13:08:41.385Z,29.57
2023-04-20T13:11:08.540Z,29.65
2023-04-20T13:13:35.090Z,28.46
2023-04-20T13:16:02.044Z,29.39
2023-04-20T13:18:28.762Z,28.77
2023-04-20T13:20:55.413Z,28.86
2023-04-20T13:23:21.954Z,28.75
2023-04-20T13:25:48.646Z,29.40
2023-04-20T13:28:15.562Z,29.58
2023-04-20T13:30:42.166Z,29.71
2023-04-20T13:33:09.076Z,29.29
2023-04-20T13:35:36.393Z,28.34
2023-04-20T13:38:04.989Z,28.16
2023-04-20T13:40:31.638Z,30.22
2023-04-20T13:42:58.425Z,27.95
2023-04-20T13:45:25.364Z,26.72
2023-04-20T13:47:51.985Z,28.66
2023-04-20T13:50:18.648Z,26.84
2023-04-20T13:52:45.297Z,26.10
2023-04-20T13:55:11.918Z,26.87
2023-04-20T13:57:38.475Z,26.17
2023-04-20T14:00:05.822Z,28.54
2023-04-20T14:02:32.999Z,27.14
2023-04-20T14:04:59.683Z,26.80
2023-04-20T14:07:26.767Z,28.55
2023-04-20T14:09:56.431Z,26.53
2023-04-20T14:12:23.205Z,26.56
2023-04-20T14:14:49.818Z,26.77
2023-04-20T14:17:16.615Z,27.46
2023-04-20T14:19:43.144Z,29.47
2023-04-20T14:22:09.727Z,27.39
2023-04-20T14:24:36.374Z,27.42
2023-04-20T14:27:03.575Z,28.64
2023-04-20T14:29:30.298Z,28.06
2023-04-20T14:31:56.976Z,27.49
2023-04-20T14:34:23.607Z,27.09
2023-04-20T14:36:50.358Z,27.62
2023-04-20T14:39:20.336Z,27.04
2023-04-20T14:41:47.010Z,27.32
2023-04-20T14:44:13.591Z,27.12
2023-04-20T14:46:42.453Z,27.52
2023-04-20T14:49:10.247Z,27.19
2023-04-20T14:51:36.817Z,26.57
2023-04-20T14:54:03.680Z,26.88
2023-04-20T14:56:30.426Z,27.93
2023-04-20T14:58:59.469Z,28.68
2023-04-20T15:01:26.220Z,28.61
2023-04-20T15:03:53.053Z,28.25
2023-04-20T15:06:19.842Z,28.60
2023-04-20T15:08:46.634Z,28.66
2023-04-20T15:11:13.329Z,28.38
2023-04-20T15:13:41.278Z,28.71
2023-04-20T15:16:10.677Z,28.38
2023-04-20T15:18:37.266Z,28.59
2023-04-20T15:21:04.169Z,29.68
2023-04-20T15:23:31.086Z,28.97
2023-04-20T15:25:57.677Z,29.27
2023-04-20T15:28:24.210Z,28.74
2023-04-20T15:30:50.874Z,28.69
2023-04-20T15:33:17.574Z,28.78
2023-04-20T15:35:44.232Z,28.80
2023-04-20T15:38:10.890Z,28.33
2023-04-20T15:40:38.813Z,28.07
2023-04-20T15:43:06.096Z,27.66
2023-04-20T15:45:32.912Z,29.56
2023-04-20T15:48:00.936Z,28.54
2023-04-20T15:50:27.652Z,28.72
2023-04-20T15:52:54.800Z,29.10
2023-04-20T15:55:22.229Z,29.24
2023-04-20T15:57:48.803Z,28.62
2023-04-20T16:00:15.834Z,28.17
2023-04-20T16:02:42.515Z,27.84
2023-04-20T16:05:12.198Z,28.29
2023-04-20T16:07:38.826Z,29.04
2023-04-20T16:10:07.234Z,29.29
2023-04-20T16:12:33.853Z,29.63
2023-04-20T16:15:02.129Z,31.05
2023-04-20T16:17:29.329Z,33.90
2023-04-20T16:19:56.006Z,34.11
2023-04-20T16:22:22.721Z,34.27
2023-04-20T16:24:49.289Z,33.53
2023-04-20T16:27:16.107Z,33.27
2023-04-20T16:29:43.086Z,34.34
2023-04-20T16:32:09.818Z,33.59
2023-04-20T16:34:36.395Z,33.69
2023-04-20T16:37:02.958Z,34.41
2023-04-20T16:39:29.531Z,34.63
2023-04-20T16:41:57.209Z,34.92
2023-04-20T16:44:23.825Z,36.14
2023-04-20T16:46:51.391Z,36.31
2023-04-20T16:49:18.207Z,36.14
2023-04-20T16:51:44.883Z,35.80
2023-04-20T16:54:12.807Z,35.55
2023-04-20T16:56:39.965Z,35.75
2023-04-20T16:59:06.691Z,36.81
2023-04-20T17:01:33.373Z,36.41
2023-04-20T17:04:00.105Z,36.52
2023-04-20T17:06:27.467Z,36.86
2023-04-20T17:08:55.993Z,37.07
2023-04-20T17:11:22.521Z,37.09
2023-04-20T17:13:49.203Z,36.13
2023-04-20T17:16:15.840Z,36.97
2023-04-20T17:18:42.464Z,37.50
2023-04-20T17:21:09.124Z,37.37
2023-04-20T17:23:35.988Z,38.21
2023-04-20T17:26:03.545Z,38.28
2023-04-20T17:28:30.565Z,38.98
2023-04-20T17:30:57.148Z,38.27
2023-04-20T17:33:23.731Z,38.21
2023-04-20T17:35:50.449Z,38.46
2023-04-20T17:38:16.997Z,38.29
2023-04-20T17:40:43.738Z,38.76
2023-04-20T17:43:10.364Z,39.31
2023-04-20T17:45:37.446Z,39.94
2023-04-20T17:48:04.358Z,39.38
2023-04-20T17:50:31.107Z,39.62
2023-04-20T17:52:57.705Z,40.39
2023-04-20T17:55:24.280Z,40.04
2023-04-20T17:57:51.028Z,40.53
2023-04-20T18:00:18.677Z,40.57
2023-04-20T18:02:45.409Z,40.80
2023-04-20T18:05:12.126Z,40.10
2023-04-20T18:07:38.715Z,40.88
2023-04-20T18:10:06.385Z,40.65
2023-04-20T18:12:33.628Z,39.85
2023-04-20T18:15:00.771Z,39.62
2023-04-20T18:17:27.436Z,39.70
2023-04-20T18:19:53.984Z,39.83
2023-04-20T18:22:20.607Z,39.64
2023-04-20T18:24:47.174Z,39.93
2023-04-20T18:27:13.764Z,40.47
2023-04-20T18:29:40.461Z,40.33
2023-04-20T18:32:07.086Z,40.26
2023-04-20T18:34:33.831Z,40.53
2023-04-20T18:37:00.482Z,40.51
2023-04-20T18:39:27.141Z,40.09
2023-04-20T18:41:53.720Z,40.29
2023-04-20T18:44:20.672Z,40.36
2023-04-20T18:46:47.544Z,40.59
2023-04-20T18:49:14.152Z,40.67
2023-04-20T18:51:40.985Z,40.63
2023-04-20T18:54:07.628Z,41.28
2023-04-20T18:56:34.220Z,40.87
2023-04-20T18:59:01.626Z,41.96
2023-04-20T19:01:28.632Z,41.55
2023-04-20T19:03:55.636Z,42.05
2023-04-20T19:06:22.522Z,41.40
2023-04-20T19:08:50.905Z,41.69
2023-04-20T19:11:17.507Z,42.12
2023-04-20T19:13:45.415Z,42.46
2023-04-20T19:16:12.649Z,42.04
2023-04-20T19:18:39.680Z,42.69
2023-04-20T19:21:06.521Z,41.79
2023-04-20T19:23:33.334Z,42.13
2023-04-20T19:25:59.992Z,42.19
2023-04-20T19:28:26.586Z,41.59
2023-04-20T19:33:28.481Z,41.86
2023-04-20T19:36:19.612Z,42.16
2023-04-20T19:39:11.399Z,42.18
2023-04-20T19:41:38.438Z,42.25
2023-04-20T19:44:06.328Z,42.30
2023-04-20T19:47:49.207Z,42.03
2023-04-20T19:50:49.880Z,42.29
2023-04-20T19:53:16.587Z,42.72
2023-04-20T19:55:43.161Z,42.49
2023-04-20T19:58:10.840Z,42.64
2023-04-20T20:00:38.818Z,42.72
2023-04-20T20:03:08.074Z,42.52
2023-04-20T20:22:01.538Z,42.93
2023-04-20T20:24:28.118Z,43.04
2023-04-20T20:26:54.745Z,43.30
2023-04-20T20:29:22.899Z,44.14
2023-04-20T20:31:49.562Z,44.39
2023-04-20T20:34:16.507Z,44.19
2023-04-20T20:36:53.293Z,44.40
2023-04-20T20:39:20.064Z,43.95
2023-04-20T20:41:47.659Z,43.90
2023-04-20T20:44:14.622Z,44.40
2023-04-20T20:47:34.202Z,44.38
2023-04-20T20:50:28.658Z,44.58
2023-04-20T20:52:55.424Z,45.04
2023-04-20T20:55:22.174Z,45.16
2023-04-20T20:57:48.796Z,45.13
2023-04-20T21:00:16.323Z,44.95
2023-04-20T21:02:43.231Z,44.89
2023-04-20T21:05:10.543Z,45.00
2023-04-20T21:07:37.269Z,44.84
2023-04-20T21:10:04.217Z,44.90
2023-04-20T21:12:30.884Z,44.73
2023-04-20T21:14:57.462Z,44.67
2023-04-20T21:17:26.811Z,44.60
2023-04-20T21:22:30.197Z,44.97
2023-04-20T21:24:56.820Z,46.10
2023-04-20T21:27:24.032Z,46.72
2023-04-20T21:29:50.625Z,46.00
2023-04-20T21:32:17.316Z,45.78
2023-04-20T21:34:59.231Z,45.81
2023-04-20T21:37:53.805Z,46.13
2023-04-20T21:40:30.566Z,46.25
2023-04-20T21:42:57.102Z,46.50
2023-04-20T21:45:23.750Z,47.19
2023-04-20T21:47:50.333Z,47.02
2023-04-20T21:50:17.016Z,47.29
2023-04-20T21:52:43.602Z,47.27
2023-04-20T21:55:10.532Z,47.84
2023-04-20T21:57:37.067Z,47.93
2023-04-20T22:00:04.236Z,47.88
2023-04-20T22:02:30.899Z,48.02
2023-04-20T22:04:57.989Z,47.81
2023-04-20T22:07:26.645Z,48.72
2023-04-20T22:09:53.350Z,48.33
2023-04-20T22:12:32.187Z,48.05
2023-04-20T22:15:06.938Z,48.97
2023-04-20T22:17:33.525Z,48.53
2023-04-20T22:20:00.222Z,48.08
2023-04-20T22:22:26.814Z,48.43
2023-04-20T22:24:53.400Z,48.58
2023-04-20T22:27:20.228Z,48.34
2023-04-20T22:29:46.785Z,48.88
2023-04-20T22:32:13.338Z,48.38
2023-04-20T22:34:39.876Z,48.67
2023-04-20T22:37:08.609Z,48.38
2023-04-20T22:39:35.659Z,48.20
2023-04-20T22:42:02.291Z,48.47
2023-04-20T22:44:28.842Z,48.70
2023-04-20T22:46:55.635Z,48.47
2023-04-20T22:49:23.542Z,48.50
2023-04-20T22:51:50.726Z,48.49
2023-04-20T22:54:30.659Z,48.25
2023-04-20T22:56:58.795Z,48.35
2023-04-20T22:59:25.411Z,48.36
2023-04-20T23:01:52.152Z,48.63
2023-04-20T23:04:40.169Z,48.56
2023-04-20T23:10:29.530Z,48.53
2023-04-20T23:12:56.199Z,48.36
2023-04-20T23:15:22.801Z,48.52
2023-04-20T23:17:50.694Z,48.42
2023-04-20T23:20:17.397Z,48.40
2023-04-20T23:22:44.060Z,48.12
2023-04-20T23:28:06.574Z,47.98
2023-04-20T23:30:33.246Z,47.57
2023-04-20T23:33:00.043Z,47.55
2023-04-20T23:36:01.012Z,47.33
2023-04-20T23:38:45.660Z,47.29
2023-04-20T23:41:14.594Z,46.79
2023-04-20T23:43:41.547Z,46.79
2023-04-20T23:46:08.745Z,46.74
2023-04-20T23:48:35.477Z,46.85
2023-04-20T23:51:02.272Z,47.10
2023-04-20T23:56:04.530Z,47.11
2023-04-20T23:58:31.499Z,46.67
